createdAt,value
2022-10-31T00:04:07.219Z,10.98
2022-10-31T00:09:10.571Z,12.20
2022-10-31T00:14:11.926Z,11.73
2022-10-31T00:19:13.357Z,11.05
2022-10-31T00:24:14.874Z,10.90
2022-10-31T00:29:16.250Z,12.50
2022-10-31T00:34:17.609Z,15.80
2022-10-31T00:39:18.948Z,11.40
2022-10-31T00:44:20.356Z,12.13
2022-10-31T00:49:21.757Z,10.40
2022-10-31T00:54:23.122Z,10.05
2022-10-31T00:59:24.507Z,10.68
2022-10-31T01:04:25.870Z,11.82
2022-10-31T01:09:27.290Z,11.57
2022-10-31T01:14:28.756Z,8.32
2022-10-31T01:19:30.157Z,11.25
2022-10-31T01:24:31.617Z,10.30
2022-10-31T01:29:32.953Z,11.93
2022-10-31T01:34:34.357Z,18.83
2022-10-31T01:39:35.847Z,8.02
2022-10-31T01:44:37.151Z,10.60
2022-10-31T01:49:49.817Z,11.00
2022-10-31T01:55:16.563Z,15.27
2022-10-31T02:00:19.958Z,12.50
2022-10-31T02:05:25.160Z,15.43
2022-10-31T02:10:28.249Z,10.20
2022-10-31T02:15:30.738Z,13.15
2022-10-31T02:21:17.094Z,21.98
2022-10-31T02:26:35.275Z,13.13
2022-10-31T02:31:51.878Z,13.55
2022-10-31T02:36:59.842Z,14.18
2022-10-31T02:42:26.154Z,11.98
2022-10-31T02:47:30.128Z,11.35
2022-10-31T02:52:33.228Z,12.45
2022-10-31T02:57:37.390Z,14.63
2022-10-31T03:02:42.146Z,13.63
2022-10-31T03:07:57.732Z,13.38
2022-10-31T03:13:25.969Z,16.63
2022-10-31T03:18:57.259Z,12.65
2022-10-31T03:24:00.687Z,14.02
2022-10-31T03:29:05.892Z,10.57
2022-10-31T03:34:09.302Z,10.80
2022-10-31T03:39:15.298Z,12.38
2022-10-31T03:44:20.004Z,10.57
2022-10-31T03:49:21.801Z,11.73
2022-10-31T03:54:46.176Z,10.18
2022-10-31T04:00:20.670Z,11.00
2022-10-31T04:05:22.672Z,13.32
2022-10-31T04:10:31.890Z,14.57
2022-10-31T04:15:36.389Z,12.85
2022-10-31T04:20:39.845Z,17.55
2022-10-31T04:25:41.186Z,13.13
2022-10-31T04:30:42.542Z,16.27
2022-10-31T04:35:44.001Z,12.70
2022-10-31T04:40:46.196Z,10.52
2022-10-31T04:45:47.664Z,13.85
2022-10-31T04:50:49.021Z,12.23
2022-10-31T04:55:50.372Z,11.55
2022-10-31T05:00:55.605Z,11.45
2022-10-31T05:05:57.062Z,14.45
2022-10-31T05:11:04.429Z,11.60
2022-10-31T05:16:06.494Z,20.50
2022-10-31T05:21:07.883Z,22.27
2022-10-31T05:26:09.242Z,19.20
2022-10-31T05:31:10.735Z,14.85
2022-10-31T05:36:12.110Z,17.35
2022-10-31T05:41:13.487Z,12.80
2022-10-31T05:46:14.873Z,15.02
2022-10-31T05:51:16.208Z,11.10
2022-10-31T05:56:17.535Z,19.00
2022-10-31T06:01:18.924Z,17.63
2022-10-31T06:06:20.328Z,13.52
2022-10-31T06:11:21.717Z,13.68
2022-10-31T06:16:23.090Z,10.55
2022-10-31T06:21:25.243Z,14.43
2022-10-31T06:26:26.633Z,17.48
2022-10-31T06:31:28.064Z,17.63
2022-10-31T06:36:29.401Z,11.57
2022-10-31T06:41:30.770Z,10.40
2022-10-31T06:46:32.109Z,16.25
2022-10-31T06:51:33.481Z,13.27
2022-10-31T06:56:35.052Z,12.40
2022-10-31T07:01:36.516Z,10.90
2022-10-31T07:06:38.379Z,9.30
2022-10-31T07:11:39.732Z,7.28
2022-10-31T07:16:41.092Z,9.75
2022-10-31T07:21:42.494Z,9.18
2022-10-31T07:26:44.524Z,9.30
2022-10-31T07:31:47.104Z,10.82
2022-10-31T07:36:48.442Z,9.25
2022-10-31T07:41:49.801Z,12.27
2022-10-31T07:46:51.203Z,9.57
2022-10-31T07:51:52.560Z,12.75
2022-10-31T07:56:53.904Z,8.32
2022-10-31T08:01:55.235Z,11.93
2022-10-31T08:06:56.610Z,12.40
2022-10-31T08:11:58.249Z,8.88
2022-10-31T08:16:59.625Z,8.60
2022-10-31T08:22:01.186Z,9.38
2022-10-31T08:27:02.598Z,9.20
2022-10-31T08:32:04.104Z,7.40
2022-10-31T08:37:05.615Z,10.70
2022-10-31T08:42:07.003Z,10.73
2022-10-31T08:47:08.361Z,11.63
2022-10-31T08:52:14.317Z,8.45
2022-10-31T08:57:16.016Z,10.23
2022-10-31T09:02:17.416Z,12.00
2022-10-31T09:07:20.995Z,11.30
2022-10-31T09:12:24.807Z,11.20
2022-10-31T09:17:27.666Z,8.48
2022-10-31T09:22:29.049Z,15.55
2022-10-31T09:27:30.394Z,12.30
2022-10-31T09:32:32.055Z,11.88
2022-10-31T09:37:33.414Z,14.63
2022-10-31T09:43:04.469Z,10.73
2022-10-31T09:48:28.086Z,10.57
2022-10-31T09:53:58.374Z,12.20
2022-10-31T09:59:01.632Z,12.80
2022-10-31T10:04:33.300Z,18.75
2022-10-31T10:09:34.699Z,14.82
2022-10-31T10:14:56.426Z,15.15
2022-10-31T10:20:21.011Z,20.02
2022-10-31T10:25:34.303Z,15.13
2022-10-31T10:30:45.683Z,14.70
2022-10-31T10:36:00.266Z,16.95
2022-10-31T10:41:05.907Z,13.85
2022-10-31T10:46:45.340Z,14.27
2022-10-31T10:52:49.277Z,14.07
2022-10-31T10:58:03.524Z,19.35
2022-10-31T11:03:06.368Z,14.13
2022-10-31T11:08:08.818Z,17.85
2022-10-31T11:13:13.275Z,17.67
2022-10-31T11:23:33.732Z,18.58
2022-10-31T11:28:36.812Z,17.33
2022-10-31T11:33:48.909Z,15.27
2022-10-31T11:38:51.531Z,18.35
2022-10-31T11:44:18.737Z,16.20
2022-10-31T11:49:36.087Z,20.38
2022-10-31T11:54:46.242Z,12.98
2022-10-31T11:59:53.909Z,17.40
2022-10-31T12:05:17.524Z,19.92
2022-10-31T12:10:22.604Z,14.13
2022-10-31T12:15:34.304Z,12.82
2022-10-31T12:21:12.868Z,16.60
2022-10-31T12:26:35.494Z,15.18
2022-10-31T12:31:53.309Z,12.23
2022-10-31T12:37:27.070Z,11.15
2022-10-31T12:43:02.975Z,11.52
2022-10-31T12:48:33.822Z,9.35
2022-10-31T12:54:01.675Z,15.00
2022-10-31T12:59:18.020Z,10.75
2022-10-31T13:04:29.252Z,11.83
2022-10-31T13:09:36.371Z,13.10
2022-10-31T13:14:42.868Z,9.65
2022-10-31T13:19:46.249Z,8.35
2022-10-31T13:25:00.510Z,11.63
2022-10-31T13:30:06.713Z,7.38
2022-10-31T13:35:18.007Z,8.15
2022-10-31T13:40:58.916Z,11.73
2022-10-31T13:46:00.359Z,7.97
2022-10-31T13:51:07.196Z,8.20
2022-10-31T13:56:08.493Z,6.43
2022-10-31T14:01:15.832Z,11.05
2022-10-31T14:06:17.592Z,10.88
2022-10-31T14:11:32.830Z,10.43
2022-10-31T14:16:41.224Z,14.07
2022-10-31T14:21:46.232Z,13.70
2022-10-31T14:26:58.820Z,12.05
2022-10-31T14:32:13.517Z,8.85
2022-10-31T14:37:25.721Z,11.57
2022-10-31T14:42:37.047Z,8.40
2022-10-31T14:47:58.407Z,14.82
2022-10-31T14:53:04.259Z,12.05
2022-10-31T14:58:08.974Z,15.50
2022-10-31T15:03:25.074Z,10.93
2022-10-31T15:08:33.596Z,12.45
2022-10-31T15:13:35.009Z,12.98
2022-10-31T15:18:41.225Z,11.30
2022-10-31T15:23:43.411Z,13.65
2022-10-31T15:28:45.504Z,7.47
2022-10-31T15:33:50.509Z,8.95
2022-10-31T15:38:52.065Z,11.82
2022-10-31T15:43:53.564Z,8.38
2022-10-31T15:48:55.162Z,13.02
2022-10-31T15:53:57.150Z,11.30
2022-10-31T15:59:01.091Z,8.13
2022-10-31T16:04:08.546Z,12.43
2022-10-31T16:09:24.095Z,13.77
2022-10-31T16:14:31.937Z,9.13
2022-10-31T16:19:36.281Z,22.65
2022-10-31T16:24:52.941Z,19.00
2022-10-31T16:29:54.750Z,15.85
2022-10-31T16:35:11.452Z,24.48
2022-10-31T16:40:16.262Z,16.10
2022-10-31T16:45:23.474Z,17.20
2022-10-31T16:50:27.804Z,15.52
2022-10-31T16:55:29.165Z,16.55
2022-10-31T17:00:31.586Z,15.85
2022-10-31T17:05:33.448Z,18.60
2022-10-31T17:10:35.574Z,19.02
2022-10-31T17:15:44.964Z,16.73
2022-10-31T17:20:47.552Z,12.82
2022-10-31T17:25:48.873Z,15.40
2022-10-31T17:30:50.486Z,17.05
2022-10-31T17:35:51.827Z,18.67
2022-10-31T17:40:53.218Z,14.10
2022-10-31T17:45:54.562Z,14.85
2022-10-31T17:51:00.096Z,14.50
2022-10-31T17:56:06.676Z,20.83
2022-10-31T18:01:10.461Z,18.25
2022-10-31T18:06:14.366Z,18.73
2022-10-31T18:11:21.653Z,18.23
2022-10-31T18:16:23.638Z,19.95
2022-10-31T18:21:25.713Z,23.35
2022-10-31T18:26:27.814Z,20.73
2022-10-31T18:31:29.296Z,20.50
2022-10-31T18:36:30.638Z,16.67
2022-10-31T18:41:32.165Z,16.98
2022-10-31T18:46:34.907Z,16.90
2022-10-31T18:51:36.237Z,15.90
2022-10-31T18:56:37.622Z,19.60
2022-10-31T19:01:39.498Z,21.20
2022-10-31T19:06:40.907Z,16.00
2022-10-31T19:11:42.272Z,19.77
2022-10-31T19:16:43.649Z,13.60
2022-10-31T19:21:45.000Z,15.38
2022-10-31T19:26:46.882Z,26.13
2022-10-31T19:31:48.394Z,19.20
2022-10-31T19:36:49.757Z,23.67
2022-10-31T19:41:51.123Z,21.35
2022-10-31T19:46:53.769Z,26.70
2022-10-31T19:51:55.449Z,24.45
2022-10-31T19:56:56.811Z,19.05
2022-10-31T20:01:58.179Z,18.92
2022-10-31T20:06:59.571Z,26.92
2022-10-31T20:12:01.176Z,18.55
2022-10-31T20:17:02.501Z,21.15
2022-10-31T20:22:03.860Z,26.02
2022-10-31T20:27:05.672Z,21.50
2022-10-31T20:32:07.043Z,25.67
2022-10-31T20:37:08.474Z,21.35
2022-10-31T20:42:10.140Z,19.77
2022-10-31T20:47:11.462Z,15.68
2022-10-31T20:52:12.813Z,17.52
2022-10-31T20:57:14.216Z,19.83
2022-10-31T21:02:15.886Z,13.82
2022-10-31T21:07:17.334Z,17.85
2022-10-31T21:12:18.709Z,17.00
2022-10-31T21:17:20.063Z,18.58
2022-10-31T21:22:21.726Z,19.73
2022-10-31T21:27:23.715Z,17.13
2022-10-31T21:32:25.229Z,22.75
2022-10-31T21:37:26.560Z,20.85
2022-10-31T21:42:27.926Z,20.38
2022-10-31T21:47:29.256Z,17.35
2022-10-31T21:52:31.145Z,17.00
2022-10-31T21:57:32.650Z,13.82
2022-10-31T22:02:34.024Z,18.08
2022-10-31T22:07:35.348Z,17.38
2022-10-31T22:12:36.681Z,21.13
2022-10-31T22:17:38.072Z,14.60
2022-10-31T22:22:39.422Z,18.63
2022-10-31T22:27:42.441Z,15.80
2022-10-31T22:32:43.789Z,18.73
2022-10-31T22:37:45.137Z,17.20
2022-10-31T22:42:46.527Z,17.38
2022-10-31T22:47:47.887Z,22.10
2022-10-31T22:52:49.221Z,21.20
2022-10-31T22:57:50.619Z,21.55
2022-10-31T23:02:51.945Z,17.70
2022-10-31T23:07:53.296Z,19.75
2022-10-31T23:13:13.133Z,16.55
2022-10-31T23:18:24.235Z,15.18
2022-10-31T23:23:36.529Z,16.43
2022-10-31T23:28:37.865Z,17.33
2022-10-31T23:33:39.206Z,15.63
2022-10-31T23:38:40.605Z,15.98
2022-10-31T23:43:41.943Z,20.63
2022-10-31T23:48:43.361Z,16.25
2022-10-31T23:53:45.610Z,16.33
2022-10-31T23:58:46.995Z,17.35
